AirNav   Pilot Hours Calculator
 
 1099 users online  

11NJ Southdown Heliport
Pluckemin, New Jersey, USA

GOING TO PLUCKEMIN?


FAA INFORMATION EFFECTIVE 05 DECEMBER 2019

Location

FAA Identifier: 11NJ
Lat/Long: 40-38-26.5670N 074-39-51.1750W
40-38.442783N 074-39.852917W
40.6407131,-74.6642153
(estimated)
Elevation: 128 ft. / 39 m (estimated)
Variation: 12W (1985)
From city: 1 mile W of PLUCKEMIN, NJ
Time zone: UTC -5 (UTC -4 during Daylight Saving Time)
Zip code: 07921

Heliport Operations

Heliport use: Private use. Permission required prior to landing
Activation date: 03/1991
Control tower: no
ARTCC: NEW YORK CENTER
FSS: MILLVILLE FLIGHT SERVICE STATION
Attendance: UNATNDD
Wind indicator: yes
Segmented circle: no

Heliport Communications

WX ASOS at SMQ (0.9 nm S): 120.6 (908-722-2139)
WX AWOS-3 at MMU (15 nm NE): PHONE 973-290-0135
WX AWOS-3 at LDJ (19 nm E): 124.025 (908-862-7383)

Nearby radio navigation aids

VOR radial/distance  VOR name  Freq  Var
SBJr056/4.9SOLBERG VOR/DME112.9010W
BWZr154/11.9BROADWAY VOR/DME114.2011W
STWr167/23.2STILLWATER VOR/DME109.6011W
ARDr036/25.8YARDLEY VOR/DME108.2010W
SAXr204/26.2SPARTA VORTAC115.7011W
RBVr354/27.4ROBBINSVILLE VORTAC113.8010W
TEBr256/30.1TETERBORO VOR/DME108.4011W
COLr322/30.3COLTS NECK VOR/DME115.4011W
CRIr284/35.1CANARSIE VOR/DME112.3011W
FJCr108/36.3ALLENTOWN VORTAC117.5010W
LGAr269/37.2LA GUARDIA VOR/DME113.1012W
GXUr007/38.0MC GUIRE VORTAC110.6012W

 
NDB name  Hdg/Dist  Freq  Var  ID
CHATHAM254/12.225413WCAT -.-. .- -
LAKEHURST348/38.839611WNEL -. . .-..

Heliport Services

Runway Information

Helipad H1

Dimensions: 100 x 100 ft. / 30 x 30 m
Surface: turf
Traffic pattern: leftleft

Heliport Ownership and Management from official FAA records

Ownership: Privately-owned
Owner: MALCOLM S. FORBES, JR.
SOUTHDOWN, BURNT MILLS RD
BEDMINSTER, NJ 07921
Phone 908-234-2175
Manager: SCOTT MASTERSON
FORBES, 60 5TH AVE,
NEW YORK, NJ 10011
Phone 212-206-5580

Heliport Operational Statistics

Aircraft based on the field: 1
Helicopters: 1
    

Additional Remarks

FOR CD CTC NEW YORK APCH AT 800-645-3206.

Instrument Procedures

There are no published instrument procedures at 11NJ.

Some nearby airports with instrument procedures:

KSMQ - Somerset Airport (1 nm S)
N51 - Solberg-Hunterdon Airport (5 nm SW)
47N - Central Jersey Regional Airport (8 nm SE)
39N - Princeton Airport (14 nm S)
KMMU - Morristown Municipal Airport (15 nm NE)
N40 - Sky Manor Airport (15 nm W)
N85 - Alexandria Airport (16 nm W)
KLDJ - Linden Airport (19 nm E)
 
Loc | Ops | Rwys | IFR | FBO | Links
Com | Nav | Svcs | Stats | Notes
Area around 11NJ (Southdown Heliport)
 
Road maps at: MapQuest Bing Google
 
Aerial photo
No photo
 
Sectional chart

 
Airport distance calculator
Flying to Southdown Heliport? Find the distance to fly.

From to 11NJ

Sunrise and sunset
Times for 05-Dec-2019
 Local
(UTC-5)
 Zulu
(UTC)
Morning civil twilight06:3811:38
Sunrise07:0812:08
Sunset16:3121:31
Evening civil twilight17:0122:01

Current date and time
Zulu (UTC)  06-Dec-2019 01:40:33
Local (UTC-5)  05-Dec-2019 20:40:33
 
METAR
KSMQ ASOS 120.60 908-722-2139
060053Z AUTO 30009G14KT 270V340 10SM OVC060 04/M05 A3001 RMK AO2 SLP164 T00391050
KMMU 
14nm NE 
060045Z 31007G12KT 10SM SCT075 02/M03 A3002
KLDJ 
19nm E 
060115Z AUTO 31013G18KT 10SM SCT060 03/M05 A3003 RMK AO2 T00321048
TAF
KTTN 
23nm S 
052100Z 0521/0618 31012G20KT P6SM OVC050 FM060000 30005KT P6SM SCT050 FM061000 VRB02KT P6SM BKN120 FM061400 22005KT P6SM BKN070
KEWR 
23nm E 
052040Z 0521/0624 29015G25KT P6SM SCT050 FM052300 28014G22KT P6SM SCT060 FM060500 28010KT P6SM FEW050 FM060700 27006KT P6SM SCT250 FM061100 23006KT P6SM BKN100 FM061600 22010KT P6SM FEW030 OVC080 FM061800 22011G18KT P6SM BKN060 OVC080 FM062200 25012G19KT P6SM BKN050 BKN100
NOTAMs
Click for the latest NOTAMs
NOTAMs are issued by the DoD/FAA and will open in a separate window not controlled by AirNav.

 

 
 

Would you like to see your business listed on this page?

 If your business provides an interesting product or service to pilots, flight crews, aircraft, or users of the Southdown Heliport, you should consider listing it here.  To start the listing process, click on the button below
 
Add a business
 

Other Pages about Southdown Heliport

Update a link
 
Copyright © AirNav, LLC. All rights reserved. Privacy Policy  Contact